Time;durP1;ratioP1;P1;durP2;ratioP2;P2;SDS_P1;SDS_P2;PMS_P1;PMS_P2;Temp;Humidity;BMP_temperature;BMP_pressure;BME280_temperature;BME280_humidity;BME280_pressure;Samples;Min_cycle;Max_cycle;Signal;HPM_P1;HPM_P2
2021/11/14 00:00:49;;;;;;;7.82;6.55;;;6.30;99.90;;;;;;7305735;19;20380;-80
2021/11/14 00:06:37;;;;;;;6.32;5.32;;;6.20;99.90;;;;;;7308139;19;2004410;-79
2021/11/14 00:09:59;;;;;;;7.55;6.07;;;6.20;99.90;;;;;;7393651;19;21053;-80
2021/11/14 00:48:33;;;;;;;5.30;4.80;;;6.00;99.90;;;;;;7419965;19;20367;-81
2021/11/14 00:51:57;;;;;;;5.55;5.00;;;6.10;99.90;;;;;;7310618;19;20360;-81
2021/11/14 00:54:46;;;;;;;7.47;5.53;;;6.00;99.90;;;;;;7297508;19;20320;-80
2021/11/14 00:57:17;;;;;;;7.35;5.55;;;6.00;99.90;;;;;;7355098;19;20349;-81
2021/11/14 00:59:47;;;;;;;5.80;4.60;;;6.10;99.90;;;;;;7377884;19;20372;-81
2021/11/14 01:02:28;;;;;;;5.80;5.15;;;6.10;99.90;;;;;;7368212;19;20358;-80
2021/11/14 01:12:43;;;;;;;5.80;5.20;;;6.20;99.90;;;;;;7422110;19;20358;-81
2021/11/14 01:15:49;;;;;;;7.53;6.00;;;6.10;99.90;;;;;;7372371;19;20870;-80
2021/11/14 01:18:18;;;;;;;8.45;6.32;;;6.20;99.90;;;;;;7370833;19;20344;-81
2021/11/14 01:20:51;;;;;;;6.00;5.50;;;6.00;99.90;;;;;;7277810;19;2004461;-81
2021/11/14 01:23:19;;;;;;;6.55;5.65;;;6.00;99.90;;;;;;7379405;19;20305;-81
2021/11/14 01:25:46;;;;;;;6.20;4.82;;;6.00;99.90;;;;;;7378125;19;20900;-81
2021/11/14 01:28:14;;;;;;;6.20;5.57;;;5.90;99.90;;;;;;7372731;19;20451;-81
2021/11/14 01:30:45;;;;;;;5.80;5.20;;;6.00;99.90;;;;;;7380304;19;20706;-81
2021/11/14 01:33:14;;;;;;;6.72;5.47;;;5.90;99.90;;;;;;7353049;19;20324;-81
2021/11/14 01:35:41;;;;;;;5.95;5.35;;;6.00;99.90;;;;;;7373146;19;20332;-81
2021/11/14 01:38:08;;;;;;;6.07;5.40;;;5.90;99.90;;;;;;7366826;19;20306;-81
2021/11/14 01:40:44;;;;;;;6.03;5.47;;;5.80;99.90;;;;;;7375061;19;20573;-80
2021/11/14 01:43:13;;;;;;;6.18;5.28;;;5.80;99.90;;;;;;7371923;19;20325;-80
2021/11/14 01:45:41;;;;;;;6.28;5.43;;;5.90;99.90;;;;;;7370528;19;20336;-81
2021/11/14 01:48:08;;;;;;;6.30;5.40;;;5.90;99.90;;;;;;7369530;19;20320;-80
2021/11/14 01:50:35;;;;;;;6.13;5.03;;;5.80;99.90;;;;;;7375840;19;20355;-81
2021/11/14 01:53:06;;;;;;;6.60;5.47;;;5.90;99.90;;;;;;7375389;19;20337;-81
2021/11/14 01:55:33;;;;;;;7.40;5.78;;;6.00;99.90;;;;;;7376790;19;20328;-81
2021/11/14 01:58:00;;;;;;;6.50;5.83;;;5.80;99.90;;;;;;7393755;19;20434;-81
2021/11/14 02:00:31;;;;;;;6.10;5.50;;;5.90;99.90;;;;;;7415655;19;20320;-80
2021/11/14 02:02:58;;;;;;;6.55;5.95;;;5.90;99.90;;;;;;7409146;19;20332;-80
2021/11/14 02:05:28;;;;;;;7.22;5.90;;;5.90;99.90;;;;;;7423984;19;20353;-80
2021/11/14 02:07:57;;;;;;;5.88;5.28;;;5.90;99.90;;;;;;7378944;19;20324;-81
2021/11/14 02:10:30;;;;;;;6.63;4.95;;;5.90;99.90;;;;;;7418034;19;20345;-80
2021/11/14 02:13:12;;;;;;;6.97;6.05;;;6.00;99.90;;;;;;7404879;19;20344;-80
2021/11/14 02:15:40;;;;;;;6.13;5.50;;;5.90;99.90;;;;;;7375684;19;20365;-80
2021/11/14 02:18:47;;;;;;;7.37;6.07;;;6.00;99.90;;;;;;7382967;19;20357;-79
2021/11/14 02:21:13;;;;;;;6.75;5.75;;;5.90;99.90;;;;;;7322433;19;2007099;-82
2021/11/14 02:23:49;;;;;;;7.93;6.65;;;5.90;99.90;;;;;;7423806;19;20344;-82
2021/11/14 02:26:45;;;;;;;6.87;6.03;;;5.90;99.90;;;;;;7424079;19;20341;-82
2021/11/14 02:29:31;;;;;;;6.57;5.28;;;5.90;99.90;;;;;;7325119;19;2004290;-82
2021/11/14 02:31:57;;;;;;;7.25;6.55;;;6.00;99.90;;;;;;7426463;19;20378;-82
2021/11/14 02:34:23;;;;;;;6.60;5.97;;;6.00;99.90;;;;;;7428630;19;20353;-82
2021/11/14 02:36:52;;;;;;;8.25;6.05;;;5.90;99.90;;;;;;7423199;19;20340;-82
2021/11/14 02:39:19;;;;;;;7.70;6.30;;;5.90;99.90;;;;;;7373429;19;20316;-79
2021/11/14 02:41:48;;;;;;;7.63;6.30;;;5.70;99.90;;;;;;7424431;19;20332;-82
2021/11/14 02:44:14;;;;;;;6.40;5.80;;;5.80;99.90;;;;;;7427286;19;20373;-82
2021/11/14 02:46:49;;;;;;;8.38;6.45;;;5.80;99.90;;;;;;7403174;19;20353;-80
2021/11/14 02:49:16;;;;;;;6.55;5.95;;;5.80;99.90;;;;;;7428781;19;20395;-80
2021/11/14 02:52:03;;;;;;;6.47;5.15;;;5.60;99.90;;;;;;7428233;19;20320;-80
2021/11/14 02:54:33;;;;;;;6.18;5.57;;;5.70;99.90;;;;;;7396730;19;20356;-79
2021/11/14 02:59:57;;;;;;;6.55;5.85;;;5.70;99.90;;;;;;7326895;19;2009244;-80
2021/11/14 03:02:26;;;;;;;7.38;6.50;;;5.60;99.90;;;;;;7424836;19;20348;-80
2021/11/14 03:05:13;;;;;;;6.25;5.47;;;5.70;99.90;;;;;;7397868;19;20341;-79
2021/11/14 03:07:41;;;;;;;7.88;5.72;;;5.60;99.90;;;;;;7416060;19;20347;-80
2021/11/14 03:10:15;;;;;;;7.47;6.78;;;5.60;99.90;;;;;;7417870;19;20325;-79
2021/11/14 03:12:41;;;;;;;6.70;6.00;;;5.70;99.90;;;;;;7326206;19;2005309;-80
2021/11/14 03:15:55;;;;;;;6.57;5.88;;;5.60;99.90;;;;;;7271342;19;2004287;-80
2021/11/14 03:18:57;;;;;;;8.52;7.53;;;5.60;99.90;;;;;;7406735;19;20328;-80
2021/11/14 03:21:25;;;;;;;6.72;5.88;;;5.50;99.90;;;;;;7322969;19;2005637;-80
2021/11/14 03:23:54;;;;;;;7.28;6.10;;;5.30;99.90;;;;;;7424411;19;20325;-79
2021/11/14 03:26:22;;;;;;;6.15;5.55;;;5.40;99.90;;;;;;7421128;19;20325;-80
2021/11/14 03:28:50;;;;;;;6.35;5.57;;;5.40;99.90;;;;;;7428021;19;20356;-81
2021/11/14 03:40:44;;;;;;;6.30;5.60;;;5.70;99.90;;;;;;7427740;19;20344;-82
2021/11/14 03:43:09;;;;;;;5.95;5.35;;;5.60;99.90;;;;;;7323449;19;2004378;-82
2021/11/14 03:45:38;;;;;;;5.95;5.13;;;5.60;99.90;;;;;;7422779;19;20381;-82
2021/11/14 03:48:05;;;;;;;5.68;4.80;;;5.60;99.90;;;;;;7426468;19;20353;-80
2021/11/14 03:50:35;;;;;;;6.50;5.50;;;5.70;99.90;;;;;;7426476;19;20297;-80
2021/11/14 03:53:07;;;;;;;5.88;5.30;;;5.60;99.90;;;;;;7405288;19;20337;-82
2021/11/14 04:01:34;;;;;;;9.30;7.80;;;5.60;99.90;;;;;;7383483;19;20332;-79
2021/11/14 04:04:03;;;;;;;7.17;6.30;;;5.50;99.90;;;;;;7418487;19;20325;-80
2021/11/14 04:06:29;;;;;;;6.97;5.65;;;5.40;99.90;;;;;;7419813;19;20369;-81
2021/11/14 04:08:58;;;;;;;9.20;6.93;;;5.50;99.90;;;;;;7363308;19;20328;-80
2021/11/14 04:11:31;;;;;;;6.80;6.10;;;5.40;99.90;;;;;;7300322;19;2004306;-80
2021/11/14 04:13:57;;;;;;;7.47;5.72;;;5.40;99.90;;;;;;7422582;19;20395;-79
2021/11/14 04:16:24;;;;;;;7.90;6.10;;;5.50;99.90;;;;;;7388067;19;20384;-81
2021/11/14 04:19:12;;;;;;;6.00;5.32;;;5.50;99.90;;;;;;7404726;19;20349;-81
2021/11/14 04:21:41;;;;;;;6.18;5.57;;;5.50;99.90;;;;;;7402987;19;20360;-81
2021/11/14 04:24:31;;;;;;;5.50;5.00;;;5.60;99.90;;;;;;7422045;19;20305;-81
2021/11/14 04:26:57;;;;;;;7.43;5.93;;;5.60;99.90;;;;;;7298107;19;2004002;-81
2021/11/14 04:29:24;;;;;;;6.20;5.25;;;5.60;99.90;;;;;;7419918;19;20352;-79
2021/11/14 04:38:22;;;;;;;5.80;5.20;;;5.70;99.90;;;;;;7410774;19;20361;-82
2021/11/14 04:40:57;;;;;;;7.28;6.20;;;5.70;99.90;;;;;;7432371;19;20908;-82
2021/11/14 04:43:24;;;;;;;8.23;5.95;;;5.70;99.90;;;;;;7431563;19;20337;-81
2021/11/14 04:45:59;;;;;;;7.20;5.68;;;5.60;99.90;;;;;;7431114;19;20369;-81
2021/11/14 04:54:28;;;;;;;6.67;5.33;;;5.80;99.90;;;;;;7346545;19;20365;-79
2021/11/14 04:59:58;;;;;;;6.20;5.60;;;5.70;99.90;;;;;;7423563;19;20327;-80
2021/11/14 05:17:13;;;;;;;6.00;5.40;;;5.70;99.90;;;;;;7367592;19;20372;-81
2021/11/14 05:19:43;;;;;;;7.72;5.70;;;5.70;99.90;;;;;;7422015;19;20305;-82
2021/11/14 05:22:20;;;;;;;6.63;5.97;;;5.60;99.90;;;;;;7363379;19;20387;-80
2021/11/14 05:24:45;;;;;;;6.50;5.72;;;5.60;99.90;;;;;;7398718;19;20332;-79
2021/11/14 05:32:54;;;;;;;6.43;5.50;;;5.60;99.90;;;;;;7320844;19;2004421;-82
2021/11/14 05:35:21;;;;;;;5.72;5.13;;;5.60;99.90;;;;;;7394818;19;20337;-82
2021/11/14 05:37:58;;;;;;;5.93;5.32;;;5.70;99.90;;;;;;7411350;19;20329;-82
2021/11/14 05:40:23;;;;;;;6.13;5.30;;;5.70;99.90;;;;;;7357301;19;20337;-81
2021/11/14 05:42:49;;;;;;;6.78;5.90;;;5.60;99.90;;;;;;7406283;19;20374;-80
2021/11/14 05:48:23;;;;;;;6.50;5.68;;;5.60;99.90;;;;;;7334998;19;20340;-82
2021/11/14 05:50:53;;;;;;;6.20;5.47;;;5.40;99.90;;;;;;7399786;19;20344;-82
2021/11/14 06:08:26;;;;;;;5.65;5.15;;;5.60;99.90;;;;;;7412775;19;20329;-80
2021/11/14 06:13:49;;;;;;;6.05;5.25;;;5.70;99.90;;;;;;7405768;19;20340;-81
2021/11/14 06:16:17;;;;;;;5.18;4.68;;;5.60;99.90;;;;;;7418279;19;20394;-82
2021/11/14 06:18:43;;;;;;;7.68;5.50;;;5.70;99.90;;;;;;7431539;19;20324;-81
2021/11/14 06:21:09;;;;;;;7.03;5.13;;;5.80;99.90;;;;;;7429534;19;20315;-81
2021/11/14 06:23:35;;;;;;;6.03;4.93;;;5.80;99.90;;;;;;7429944;19;20344;-81
2021/11/14 06:26:01;;;;;;;5.93;5.32;;;5.80;99.90;;;;;;7394303;19;20348;-83
2021/11/14 06:28:28;;;;;;;5.05;4.55;;;5.80;99.90;;;;;;7364760;19;20320;-81
2021/11/14 06:30:54;;;;;;;4.90;4.50;;;5.90;99.90;;;;;;7427856;19;20316;-81
2021/11/14 06:33:20;;;;;;;5.38;4.82;;;5.90;99.90;;;;;;7414045;19;20368;-81
2021/11/14 06:35:46;;;;;;;5.27;4.77;;;6.00;99.90;;;;;;7425405;19;20293;-82
2021/11/14 06:38:13;;;;;;;5.28;4.45;;;6.00;99.90;;;;;;7427510;19;20350;-81
2021/11/14 06:40:43;;;;;;;6.03;5.43;;;6.00;99.90;;;;;;7404946;19;20372;-81
2021/11/14 06:46:52;;;;;;;5.63;5.13;;;6.00;99.90;;;;;;7223293;19;2004330;-81
2021/11/14 06:49:18;;;;;;;6.40;5.65;;;6.00;99.90;;;;;;7412905;19;20329;-81
2021/11/14 06:51:44;;;;;;;7.93;7.03;;;6.00;99.90;;;;;;7428026;19;20305;-82
2021/11/14 06:54:19;;;;;;;6.47;5.87;;;5.90;99.90;;;;;;7407203;19;20356;-80
2021/11/14 06:56:51;;;;;;;6.95;6.00;;;5.90;99.90;;;;;;7424884;19;20305;-81
2021/11/14 06:59:21;;;;;;;6.32;5.72;;;5.80;99.90;;;;;;7429781;19;20340;-81
2021/11/14 07:46:16;;;;;;;10.05;7.22;;;6.00;99.90;;;;;;7365910;19;20337;-81
2021/11/14 07:57:53;;;;;;;8.88;7.97;;;6.30;99.90;;;;;;7410897;19;20353;-80
2021/11/14 08:32:34;;;;;;;12.43;9.68;;;6.80;99.90;;;;;;7350592;19;20365;-79
2021/11/14 08:38:11;;;;;;;13.07;11.18;;;6.90;99.90;;;;;;7399277;19;20376;-81
2021/11/14 08:40:58;;;;;;;7.68;6.90;;;6.90;99.90;;;;;;7410714;19;20321;-81
2021/11/14 08:43:28;;;;;;;9.32;7.43;;;7.10;99.90;;;;;;7387630;19;20287;-80
2021/11/14 08:46:19;;;;;;;8.40;7.00;;;7.20;99.90;;;;;;7425091;19;20423;-82
2021/11/14 08:49:10;;;;;;;8.15;6.93;;;7.30;99.90;;;;;;7396650;19;20350;-81
2021/11/14 08:51:52;;;;;;;11.07;8.10;;;7.50;99.90;;;;;;7396446;19;20306;-81
2021/11/14 08:54:28;;;;;;;8.40;6.30;;;7.60;99.90;;;;;;7415717;19;20320;-81
2021/11/14 08:57:17;;;;;;;9.00;7.78;;;7.70;99.90;;;;;;7412125;19;20312;-82
2021/11/14 09:00:43;;;;;;;8.20;6.45;;;7.90;99.90;;;;;;7311171;19;2004521;-81
2021/11/14 09:04:01;;;;;;;9.55;7.93;;;8.00;99.90;;;;;;7328602;19;20415;-82
2021/11/14 09:10:31;;;;;;;7.95;7.00;;;8.00;99.90;;;;;;7427201;19;20351;-81
2021/11/14 09:14:22;;;;;;;10.27;7.83;;;8.00;99.90;;;;;;7377973;19;20369;-81
2021/11/14 09:17:33;;;;;;;10.80;8.88;;;8.10;99.90;;;;;;7368851;19;20400;-81
2021/11/14 09:20:21;;;;;;;8.20;6.25;;;8.00;99.90;;;;;;7426082;19;20388;-81
2021/11/14 09:22:52;;;;;;;10.73;8.10;;;8.10;99.90;;;;;;7299158;19;2004470;-81
2021/11/14 09:25:18;;;;;;;9.80;7.53;;;8.20;99.90;;;;;;7376285;19;20343;-81
2021/11/14 09:28:36;;;;;;;9.98;7.43;;;8.40;99.90;;;;;;7362233;19;20367;-81
2021/11/14 09:31:30;;;;;;;11.23;7.93;;;8.40;99.90;;;;;;7259455;19;2004435;-80
2021/11/14 09:33:57;;;;;;;8.40;6.72;;;8.70;99.90;;;;;;7406924;19;20324;-81
2021/11/14 09:36:30;;;;;;;7.10;5.97;;;8.90;99.90;;;;;;7391995;19;20301;-80
2021/11/14 09:39:03;;;;;;;7.88;6.97;;;9.00;99.90;;;;;;7416221;19;20331;-80
2021/11/14 09:41:30;;;;;;;8.70;7.00;;;9.10;99.90;;;;;;7405032;19;20328;-81
2021/11/14 09:43:56;;;;;;;9.30;7.15;;;9.20;99.90;;;;;;7405528;19;20344;-81
2021/11/14 09:46:22;;;;;;;7.95;6.90;;;9.10;99.90;;;;;;7403513;19;20326;-79
2021/11/14 09:48:52;;;;;;;6.57;5.97;;;9.20;99.90;;;;;;7413951;19;20313;-80
2021/11/14 09:51:24;;;;;;;6.93;5.93;;;9.30;99.90;;;;;;7396961;19;20315;-80
2021/11/14 09:53:50;;;;;;;7.32;6.32;;;9.40;99.90;;;;;;7385341;19;20878;-80
2021/11/14 09:56:19;;;;;;;7.70;6.90;;;9.40;99.90;;;;;;7397555;19;20340;-80
2021/11/14 09:58:44;;;;;;;12.10;7.88;;;9.30;99.90;;;;;;7397309;19;20882;-80
2021/11/14 10:01:12;;;;;;;8.82;7.18;;;9.30;99.90;;;;;;7382412;19;20316;-80
2021/11/14 10:03:37;;;;;;;6.90;6.20;;;9.40;99.90;;;;;;7386707;19;20354;-80
2021/11/14 10:06:03;;;;;;;7.22;6.53;;;9.30;99.90;;;;;;7385358;19;20328;-80
2021/11/14 10:08:37;;;;;;;7.80;6.38;;;9.30;99.90;;;;;;7395999;19;20423;-80
2021/11/14 10:11:03;;;;;;;7.10;6.13;;;9.50;99.90;;;;;;7404150;19;20332;-80
2021/11/14 10:13:34;;;;;;;7.05;6.35;;;9.30;99.90;;;;;;7403712;19;20363;-80
2021/11/14 10:16:13;;;;;;;8.75;7.65;;;9.50;99.90;;;;;;7410015;19;20320;-81
2021/11/14 10:18:40;;;;;;;7.80;6.97;;;9.30;99.90;;;;;;7406732;19;20790;-80
2021/11/14 10:21:05;;;;;;;7.32;6.05;;;9.30;99.90;;;;;;7407804;19;20394;-80
2021/11/14 10:23:36;;;;;;;6.70;5.87;;;9.30;99.90;;;;;;7405940;19;20364;-80
2021/11/14 10:26:06;;;;;;;7.63;6.75;;;9.40;99.90;;;;;;7400132;19;20352;-80
2021/11/14 10:28:32;;;;;;;6.13;5.53;;;9.50;99.90;;;;;;7397814;19;20340;-80
2021/11/14 10:30:59;;;;;;;7.67;6.57;;;9.50;99.90;;;;;;7397608;19;20412;-80
2021/11/14 10:33:27;;;;;;;5.93;5.35;;;9.60;99.90;;;;;;7398694;19;20335;-81
2021/11/14 10:35:56;;;;;;;9.20;7.22;;;9.60;99.90;;;;;;7408807;19;20327;-81
2021/11/14 10:38:25;;;;;;;9.43;7.07;;;9.60;99.90;;;;;;7397473;19;20317;-80
2021/11/14 10:41:15;;;;;;;7.28;6.53;;;9.50;99.90;;;;;;7381528;19;20380;-81
2021/11/14 10:43:48;;;;;;;5.05;4.65;;;9.60;99.90;;;;;;7374002;19;20340;-80
2021/11/14 10:46:51;;;;;;;9.20;7.50;;;9.60;99.90;;;;;;7416149;19;20717;-81
2021/11/14 10:49:52;;;;;;;6.50;5.57;;;9.50;99.90;;;;;;7352291;19;20332;-81
2021/11/14 10:52:57;;;;;;;7.10;6.30;;;9.80;99.90;;;;;;7379238;19;20300;-81
2021/11/14 10:55:52;;;;;;;6.90;6.20;;;9.70;99.90;;;;;;7129408;19;2005316;-80
2021/11/14 10:58:20;;;;;;;5.93;5.38;;;9.70;99.90;;;;;;7382497;19;20332;-81
2021/11/14 11:00:47;;;;;;;7.77;6.87;;;9.80;99.90;;;;;;7392907;19;20339;-81
2021/11/14 11:03:16;;;;;;;5.80;5.20;;;9.90;99.90;;;;;;7405178;19;20328;-80
2021/11/14 11:05:42;;;;;;;9.63;7.85;;;9.90;99.90;;;;;;7391557;19;20343;-79
2021/11/14 11:08:21;;;;;;;7.93;6.88;;;9.80;99.90;;;;;;7368392;19;20340;-80
2021/11/14 11:10:52;;;;;;;7.38;6.28;;;9.90;99.90;;;;;;7392224;19;20799;-80
2021/11/14 11:13:30;;;;;;;11.57;8.25;;;9.80;99.90;;;;;;7391769;19;20329;-80
2021/11/14 11:16:02;;;;;;;10.32;7.88;;;9.80;99.90;;;;;;7393296;19;20324;-80
2021/11/14 11:18:33;;;;;;;9.25;7.63;;;9.80;99.90;;;;;;7331526;19;20356;-80
2021/11/14 11:21:02;;;;;;;8.35;6.18;;;9.70;99.90;;;;;;7390946;19;20329;-80
2021/11/14 11:23:28;;;;;;;9.63;8.00;;;9.70;99.90;;;;;;7374802;19;20310;-81
2021/11/14 11:25:57;;;;;;;8.27;6.72;;;9.60;99.90;;;;;;7402798;19;20309;-81
2021/11/14 11:28:33;;;;;;;8.07;6.50;;;9.60;99.90;;;;;;7403352;19;20764;-80
2021/11/14 11:31:00;;;;;;;9.65;7.50;;;9.70;99.90;;;;;;7400854;19;20316;-81
2021/11/14 11:33:27;;;;;;;10.90;7.93;;;9.70;99.90;;;;;;7380489;19;20344;-81
2021/11/14 11:35:53;;;;;;;9.20;7.95;;;9.50;99.90;;;;;;7398987;19;20331;-80
2021/11/14 11:38:21;;;;;;;7.47;6.68;;;9.40;99.90;;;;;;7396718;19;20317;-81
2021/11/14 11:40:50;;;;;;;8.85;7.45;;;9.40;99.90;;;;;;7395689;19;20357;-81
2021/11/14 11:43:16;;;;;;;7.97;7.17;;;9.30;99.90;;;;;;7394921;19;20420;-80
2021/11/14 11:45:44;;;;;;;8.02;7.10;;;9.20;99.90;;;;;;7393507;19;20324;-80
2021/11/14 11:48:36;;;;;;;6.82;6.00;;;9.30;99.90;;;;;;7295125;19;2004455;-81
2021/11/14 11:51:16;;;;;;;6.97;5.32;;;9.40;99.90;;;;;;7281935;19;2010170;-80
2021/11/14 11:53:41;;;;;;;9.23;7.20;;;9.60;99.90;;;;;;7385629;19;20375;-80
2021/11/14 11:56:12;;;;;;;9.88;8.18;;;9.60;99.90;;;;;;7386004;19;20360;-79
2021/11/14 11:58:45;;;;;;;10.43;7.70;;;9.50;99.90;;;;;;7401424;19;20337;-81
2021/11/14 12:01:21;;;;;;;6.22;5.63;;;9.50;99.90;;;;;;7391155;19;20337;-80
2021/11/14 12:03:46;;;;;;;7.40;6.70;;;9.70;99.90;;;;;;7414614;19;20343;-81
2021/11/14 12:06:21;;;;;;;7.93;6.68;;;9.70;99.90;;;;;;7382597;19;20956;-80
2021/11/14 12:08:53;;;;;;;10.25;7.90;;;9.70;99.90;;;;;;7405592;19;20340;-80
2021/11/14 12:11:38;;;;;;;6.65;5.97;;;9.70;99.90;;;;;;7401016;19;20330;-81
2021/11/14 12:14:20;;;;;;;10.13;7.85;;;9.60;99.90;;;;;;7295305;19;2004451;-80
2021/11/14 12:17:07;;;;;;;7.50;5.45;;;9.50;99.90;;;;;;7406693;19;20325;-81
2021/11/14 12:19:37;;;;;;;7.00;6.30;;;9.70;99.90;;;;;;7420321;19;20345;-81
2021/11/14 12:22:15;;;;;;;6.45;5.80;;;9.80;99.90;;;;;;7422533;19;20333;-81
2021/11/14 12:24:59;;;;;;;8.75;7.60;;;9.90;99.90;;;;;;7424013;19;20340;-81
2021/11/14 12:27:29;;;;;;;7.22;6.53;;;9.90;99.90;;;;;;7420136;19;20329;-80
2021/11/14 12:30:29;;;;;;;10.82;7.95;;;10.00;99.90;;;;;;7410552;19;20316;-81
2021/11/14 12:33:20;;;;;;;8.52;7.70;;;9.90;99.90;;;;;;7309672;19;2004439;-80
2021/11/14 12:35:54;;;;;;;10.33;7.43;;;9.80;99.90;;;;;;7392880;19;20305;-81
2021/11/14 12:38:28;;;;;;;9.68;8.30;;;9.80;99.90;;;;;;7394933;19;20442;-81
2021/11/14 12:41:06;;;;;;;7.50;6.63;;;9.80;99.90;;;;;;7396110;19;20328;-81
2021/11/14 12:43:52;;;;;;;7.23;6.30;;;9.90;99.90;;;;;;7375712;19;20336;-82
2021/11/14 12:46:26;;;;;;;9.57;7.78;;;10.00;99.90;;;;;;7366196;19;20340;-81
2021/11/14 12:48:52;;;;;;;10.35;7.47;;;9.90;99.90;;;;;;7352824;19;20386;-81
2021/11/14 12:51:26;;;;;;;9.95;8.50;;;10.10;99.90;;;;;;7385864;19;20332;-80
2021/11/14 12:54:21;;;;;;;8.40;6.90;;;10.00;99.90;;;;;;7311002;19;2004517;-80
2021/11/14 12:57:02;;;;;;;9.90;8.70;;;10.00;99.90;;;;;;7299053;19;2005947;-80
2021/11/14 12:59:41;;;;;;;9.80;8.10;;;9.90;99.90;;;;;;7398607;19;20404;-80
2021/11/14 13:02:27;;;;;;;10.40;9.27;;;9.90;99.90;;;;;;7414118;19;20332;-81
2021/11/14 13:05:08;;;;;;;10.63;9.43;;;9.70;99.90;;;;;;7272811;19;2004308;-80
2021/11/14 13:07:35;;;;;;;13.48;10.40;;;9.80;99.90;;;;;;7310318;19;2009331;-81
2021/11/14 13:10:13;;;;;;;12.10;10.48;;;9.60;99.90;;;;;;7412217;19;20340;-80
2021/11/14 13:12:49;;;;;;;13.63;11.80;;;9.60;99.90;;;;;;7393659;19;20353;-81
2021/11/14 13:15:18;;;;;;;19.95;11.30;;;9.40;99.90;;;;;;7393994;19;20689;-80
2021/11/14 13:17:56;;;;;;;15.27;12.07;;;9.50;99.90;;;;;;7413547;19;20352;-80
2021/11/14 13:20:27;;;;;;;16.00;12.38;;;9.30;99.90;;;;;;7376762;19;20317;-80
2021/11/14 13:22:54;;;;;;;15.55;12.68;;;9.40;99.90;;;;;;7412890;19;20300;-80
2021/11/14 13:28:26;;;;;;;11.68;9.77;;;9.20;99.90;;;;;;7390053;19;20297;-80
2021/11/14 13:31:01;;;;;;;16.77;11.48;;;9.20;99.90;;;;;;7390887;19;20382;-81
2021/11/14 13:33:27;;;;;;;16.20;12.43;;;9.20;99.90;;;;;;7418077;19;20316;-81
2021/11/14 13:35:57;;;;;;;14.30;11.35;;;9.20;99.90;;;;;;7413798;19;20312;-81
2021/11/14 13:38:43;;;;;;;12.10;9.77;;;9.20;99.90;;;;;;7304072;19;2024738;-81
2021/11/14 13:41:20;;;;;;;13.02;10.45;;;9.40;99.90;;;;;;7400268;19;20297;-81
2021/11/14 13:43:59;;;;;;;13.82;11.10;;;9.30;99.90;;;;;;7317365;19;2005343;-80
2021/11/14 13:46:26;;;;;;;16.40;12.23;;;9.30;99.90;;;;;;7410923;19;20333;-80
2021/11/14 13:48:55;;;;;;;14.90;12.23;;;9.20;99.90;;;;;;7411782;19;20343;-81
2021/11/14 13:51:25;;;;;;;19.02;13.75;;;9.20;99.90;;;;;;7348566;19;20346;-81
2021/11/14 13:53:50;;;;;;;15.15;12.95;;;9.20;99.90;;;;;;7396556;19;20300;-81
2021/11/14 13:56:20;;;;;;;14.80;10.73;;;9.20;99.90;;;;;;7396507;19;20309;-80
2021/11/14 13:58:51;;;;;;;18.77;13.73;;;9.20;99.90;;;;;;7387425;19;20308;-81
2021/11/14 14:01:32;;;;;;;16.02;12.88;;;9.10;99.90;;;;;;7391417;19;20317;-81
2021/11/14 14:03:59;;;;;;;12.82;10.40;;;9.00;99.90;;;;;;7412385;19;20339;-80
2021/11/14 14:06:29;;;;;;;15.13;11.03;;;9.00;99.90;;;;;;7414597;19;20856;-80
2021/11/14 14:09:01;;;;;;;13.80;9.52;;;9.00;99.90;;;;;;7416926;19;20348;-80
2021/11/14 14:11:32;;;;;;;16.08;12.93;;;9.10;99.90;;;;;;7376872;19;20365;-79
2021/11/14 14:14:02;;;;;;;12.20;10.63;;;9.10;99.90;;;;;;7377329;19;20344;-79
2021/11/14 14:16:28;;;;;;;12.40;10.07;;;9.00;99.90;;;;;;7377720;19;20347;-79
2021/11/14 14:18:54;;;;;;;16.87;13.83;;;9.00;99.90;;;;;;7382753;19;20339;-79
2021/11/14 14:31:55;;;;;;;16.00;12.68;;;8.70;99.90;;;;;;7345671;19;20328;-82
2021/11/14 15:53:29;;;;;;;27.25;18.55;;;7.20;99.90;;;;;;7378480;19;20359;-79
2021/11/14 15:55:57;;;;;;;29.23;20.48;;;7.20;99.90;;;;;;7422661;19;20340;-80
2021/11/14 15:58:26;;;;;;;25.73;19.05;;;7.20;99.90;;;;;;7407981;19;20441;-79
2021/11/14 16:00:59;;;;;;;27.10;20.50;;;7.20;99.90;;;;;;7409360;19;20337;-80
2021/11/14 16:03:33;;;;;;;27.65;20.52;;;7.10;99.90;;;;;;7413748;19;20317;-80
2021/11/14 16:05:59;;;;;;;22.42;16.80;;;7.10;99.90;;;;;;7308390;19;2008325;-80
2021/11/14 16:08:25;;;;;;;24.63;19.23;;;7.10;99.90;;;;;;7410826;19;20994;-80
2021/11/14 16:10:51;;;;;;;27.73;19.42;;;7.10;99.90;;;;;;7386316;19;20609;-79
2021/11/14 16:13:16;;;;;;;23.50;17.07;;;7.10;99.90;;;;;;7382973;19;20328;-79
2021/11/14 16:15:42;;;;;;;26.10;19.00;;;7.10;99.90;;;;;;7381619;19;20371;-79
2021/11/14 17:41:06;;;;;;;27.83;21.00;;;6.10;99.90;;;;;;7357096;19;20339;-81
2021/11/14 17:43:37;;;;;;;27.43;20.97;;;6.00;99.90;;;;;;7353699;19;20333;-81
2021/11/14 17:46:11;;;;;;;30.95;22.45;;;6.00;99.90;;;;;;7352208;19;20359;-81
2021/11/14 21:18:21;;;;;;;36.47;24.63;;;4.80;99.90;;;;;;7351751;19;20345;31
